Time;durP1;ratioP1;P1;durP2;ratioP2;P2;SDS_P1;SDS_P2;PMS_P1;PMS_P2;Temp;Humidity;BMP_temperature;BMP_pressure;BME280_temperature;BME280_humidity;BME280_pressure;Samples;Min_cycle;Max_cycle;Signal;HPM_P1;HPM_P2
2023/07/15 00:00:12;;;;;;;1999.90;999.90;;;;;;;;;;5049847;28;20061;-74
2023/07/15 00:02:38;;;;;;;1999.90;999.90;;;;;;;;;;5048303;28;20088;-73
2023/07/15 00:05:06;;;;;;;1999.90;999.90;;;;;;;;;;5049162;28;20052;-74
2023/07/15 00:07:33;;;;;;;1999.90;999.90;;;;;;;;;;5049602;28;20045;-73
2023/07/15 00:10:00;;;;;;;1999.90;999.90;;;;;;;;;;5049083;28;20048;-73
2023/07/15 00:12:26;;;;;;;1999.90;999.90;;;;;;;;;;5049809;28;20049;-73
2023/07/15 00:14:53;;;;;;;1999.90;999.90;;;;;;;;;;5049085;28;20516;-73
2023/07/15 00:17:19;;;;;;;1999.90;999.90;;;;;;;;;;5049006;28;20049;-74
2023/07/15 00:19:46;;;;;;;1999.90;999.90;;;;;;;;;;5048794;28;20045;-74
2023/07/15 00:22:13;;;;;;;1999.90;999.90;;;;;;;;;;5046971;28;20120;-73
2023/07/15 00:24:41;;;;;;;1999.90;999.90;;;;;;;;;;5048328;28;20150;-74
2023/07/15 00:27:08;;;;;;;1999.90;999.90;;;;;;;;;;5048863;28;20044;-73
2023/07/15 00:29:35;;;;;;;1999.90;999.90;;;;;;;;;;5049006;28;20130;-75
2023/07/15 00:32:04;;;;;;;1999.90;999.90;;;;;;;;;;5047665;28;20045;-74
2023/07/15 00:34:30;;;;;;;1999.90;999.90;;;;;;;;;;5047920;28;20133;-74
2023/07/15 00:36:57;;;;;;;1999.90;999.90;;;;;;;;;;5049015;28;20052;-75
2023/07/15 00:39:23;;;;;;;1999.90;999.90;;;;;;;;;;5048334;28;20052;-73
2023/07/15 00:41:55;;;;;;;1999.90;999.90;;;;;;;;;;5048517;28;20080;-74
2023/07/15 00:44:22;;;;;;;1999.90;999.90;;;;;;;;;;5049226;28;20056;-74
2023/07/15 00:47:12;;;;;;;1999.90;999.90;;;;;;;;;;5048422;28;20493;-74
2023/07/15 00:49:39;;;;;;;1999.90;999.90;;;;;;;;;;5048374;28;20051;-73
2023/07/15 00:52:09;;;;;;;1999.90;999.90;;;;;;;;;;5048399;28;20045;-74
2023/07/15 00:54:37;;;;;;;1999.90;999.90;;;;;;;;;;5048800;28;20053;-73
2023/07/15 00:57:04;;;;;;;1999.90;999.90;;;;;;;;;;5047865;28;20069;-73
2023/07/15 00:59:31;;;;;;;1999.90;999.90;;;;;;;;;;5047033;28;20139;-73
2023/07/15 01:01:59;;;;;;;1999.90;999.90;;;;;;;;;;5048069;28;20509;-74
2023/07/15 01:04:26;;;;;;;1999.90;999.90;;;;;;;;;;5106310;22;20484;-72
2023/07/15 01:06:54;;;;;;;1999.90;999.90;;;;;;;;;;5071071;28;20556;-73
2023/07/15 01:09:20;;;;;;;1999.90;999.90;;;;;;;;;;5071513;28;20049;-72
2023/07/15 01:11:47;;;;;;;1999.90;999.90;;;;;;;;;;5071346;28;20056;-73
2023/07/15 01:14:14;;;;;;;1999.90;999.90;;;;;;;;;;5068180;28;20090;-72
2023/07/15 01:16:41;;;;;;;1999.90;999.90;;;;;;;;;;5072987;28;20219;-73
2023/07/15 01:19:09;;;;;;;1999.90;999.90;;;;;;;;;;5064965;28;20041;-72
2023/07/15 01:21:36;;;;;;;1999.90;999.90;;;;;;;;;;5066936;28;20343;-73
2023/07/15 01:24:06;;;;;;;1999.90;999.90;;;;;;;;;;5068506;28;20044;-73
2023/07/15 01:26:33;;;;;;;1999.90;999.90;;;;;;;;;;5067366;28;20059;-72
2023/07/15 01:28:59;;;;;;;1999.90;999.90;;;;;;;;;;5066289;28;20056;-73
2023/07/15 01:31:26;;;;;;;1999.90;999.90;;;;;;;;;;5062523;28;20555;-72
2023/07/15 01:33:53;;;;;;;1999.90;999.90;;;;;;;;;;5064816;28;20045;-73
2023/07/15 01:36:19;;;;;;;1999.90;999.90;;;;;;;;;;5074380;28;20124;-74
2023/07/15 01:38:46;;;;;;;1999.90;999.90;;;;;;;;;;5066618;28;20045;-73
2023/07/15 01:41:14;;;;;;;1999.90;999.90;;;;;;;;;;5075593;28;20041;-72
2023/07/15 01:43:40;;;;;;;1999.90;999.90;;;;;;;;;;5067204;28;20047;-72
2023/07/15 01:46:06;;;;;;;1999.90;999.90;;;;;;;;;;5068278;28;20044;-73
2023/07/15 01:48:33;;;;;;;1999.90;999.90;;;;;;;;;;5081893;28;20044;-72
2023/07/15 01:51:00;;;;;;;1999.90;999.90;;;;;;;;;;5075151;28;20047;-72
2023/07/15 01:53:26;;;;;;;1999.90;999.90;;;;;;;;;;5071925;28;20058;-72
2023/07/15 01:55:53;;;;;;;1999.90;999.90;;;;;;;;;;5074202;28;20043;-73
2023/07/15 01:58:21;;;;;;;1999.90;999.90;;;;;;;;;;5071689;28;20058;-72
2023/07/15 02:00:48;;;;;;;1999.90;999.90;;;;;;;;;;5079339;28;20044;-72
2023/07/15 02:03:14;;;;;;;1999.90;999.90;;;;;;;;;;5071280;28;20045;-72
2023/07/15 02:05:41;;;;;;;1999.90;999.90;;;;;;;;;;5075051;28;20544;-72
2023/07/15 02:08:07;;;;;;;1999.90;999.90;;;;;;;;;;5075914;28;20048;-73
2023/07/15 02:10:34;;;;;;;1999.90;999.90;;;;;;;;;;5069768;28;20059;-72
2023/07/15 02:13:00;;;;;;;1999.90;999.90;;;;;;;;;;5079156;28;20048;-72
2023/07/15 02:15:28;;;;;;;1999.90;999.90;;;;;;;;;;5077662;28;20095;-73
2023/07/15 02:17:55;;;;;;;1999.90;999.90;;;;;;;;;;5072385;28;20052;-73
2023/07/15 02:20:22;;;;;;;1999.90;999.90;;;;;;;;;;5073394;28;20079;-72
2023/07/15 02:22:48;;;;;;;1999.90;999.90;;;;;;;;;;5066755;28;20078;-73
2023/07/15 02:25:16;;;;;;;1999.90;999.90;;;;;;;;;;5077215;28;20044;-72
2023/07/15 02:27:43;;;;;;;1999.90;999.90;;;;;;;;;;5071792;28;20400;-72
2023/07/15 02:30:10;;;;;;;1999.90;999.90;;;;;;;;;;5077003;28;20044;-74
2023/07/15 02:32:39;;;;;;;1999.90;999.90;;;;;;;;;;5070051;28;20036;-72
2023/07/15 02:35:09;;;;;;;1999.90;999.90;;;;;;;;;;5066943;28;20048;-72
2023/07/15 02:37:37;;;;;;;1999.90;999.90;;;;;;;;;;5070395;28;20049;-74
2023/07/15 02:40:04;;;;;;;1999.90;999.90;;;;;;;;;;5066857;28;20052;-72
2023/07/15 02:42:33;;;;;;;1999.90;999.90;;;;;;;;;;5067479;28;20073;-73
2023/07/15 02:44:59;;;;;;;1999.90;999.90;;;;;;;;;;5062408;28;20044;-73
2023/07/15 02:47:26;;;;;;;1999.90;999.90;;;;;;;;;;5064039;28;20056;-72
2023/07/15 02:49:54;;;;;;;1999.90;999.90;;;;;;;;;;5069961;28;20049;-72
2023/07/15 02:52:20;;;;;;;1999.90;999.90;;;;;;;;;;5072427;28;20050;-73
2023/07/15 02:54:47;;;;;;;1999.90;999.90;;;;;;;;;;5068256;28;20398;-72
2023/07/15 02:57:13;;;;;;;1999.90;999.90;;;;;;;;;;5064511;28;20040;-73
2023/07/15 02:59:40;;;;;;;1999.90;999.90;;;;;;;;;;5069244;28;20060;-72
2023/07/15 03:02:06;;;;;;;1999.90;999.90;;;;;;;;;;5072177;28;20037;-74
2023/07/15 03:04:33;;;;;;;1999.90;999.90;;;;;;;;;;5076315;28;20056;-73
2023/07/15 03:07:01;;;;;;;1999.90;999.90;;;;;;;;;;5070211;28;20457;-74
2023/07/15 03:09:27;;;;;;;1999.90;999.90;;;;;;;;;;5070003;28;20421;-73
2023/07/15 03:11:54;;;;;;;1999.90;999.90;;;;;;;;;;5071131;28;20384;-72
2023/07/15 03:14:20;;;;;;;1999.90;999.90;;;;;;;;;;5072959;28;20053;-72
2023/07/15 03:16:47;;;;;;;1999.90;999.90;;;;;;;;;;5074691;28;20040;-74
2023/07/15 03:19:13;;;;;;;1999.90;999.90;;;;;;;;;;5071166;28;20040;-72
2023/07/15 03:21:40;;;;;;;1999.90;999.90;;;;;;;;;;5071223;28;20106;-74
2023/07/15 03:24:08;;;;;;;1999.90;999.90;;;;;;;;;;5077684;28;20044;-73
2023/07/15 03:26:35;;;;;;;1999.90;999.90;;;;;;;;;;5068094;28;20053;-72
2023/07/15 03:29:05;;;;;;;1999.90;999.90;;;;;;;;;;5073507;28;20140;-73
2023/07/15 03:31:32;;;;;;;1999.90;999.90;;;;;;;;;;5068936;28;20041;-72
2023/07/15 03:33:59;;;;;;;1999.90;999.90;;;;;;;;;;5070696;28;20050;-73
2023/07/15 03:36:28;;;;;;;1999.90;999.90;;;;;;;;;;5078138;28;20512;-72
2023/07/15 03:38:54;;;;;;;1999.90;999.90;;;;;;;;;;5069420;28;20044;-72
2023/07/15 03:41:22;;;;;;;1999.90;999.90;;;;;;;;;;5070261;28;20072;-72
2023/07/15 03:43:48;;;;;;;1999.90;999.90;;;;;;;;;;5071862;28;20036;-73
2023/07/15 03:46:15;;;;;;;1999.90;999.90;;;;;;;;;;5068763;28;20052;-72
2023/07/15 03:48:41;;;;;;;1999.90;999.90;;;;;;;;;;5067389;28;20044;-72
2023/07/15 03:51:08;;;;;;;1999.90;999.90;;;;;;;;;;5074617;28;20041;-73
2023/07/15 03:53:35;;;;;;;1999.90;999.90;;;;;;;;;;5069297;28;20139;-73
2023/07/15 03:56:02;;;;;;;1999.90;999.90;;;;;;;;;;5068572;28;20044;-73
2023/07/15 03:58:29;;;;;;;1999.90;999.90;;;;;;;;;;5062585;28;20565;-73
2023/07/15 04:00:56;;;;;;;1999.90;999.90;;;;;;;;;;5060776;28;20040;-72
2023/07/15 04:03:25;;;;;;;1999.90;999.90;;;;;;;;;;5057460;28;20106;-72
2023/07/15 04:05:52;;;;;;;1999.90;999.90;;;;;;;;;;5065626;28;20055;-73
2023/07/15 04:08:18;;;;;;;1999.90;999.90;;;;;;;;;;5065712;28;20056;-73
2023/07/15 04:10:45;;;;;;;1999.90;999.90;;;;;;;;;;5068253;28;20055;-73
2023/07/15 04:13:12;;;;;;;1999.90;999.90;;;;;;;;;;5071763;28;20044;-73
2023/07/15 04:15:40;;;;;;;1999.90;999.90;;;;;;;;;;5067580;28;20048;-73
2023/07/15 04:18:06;;;;;;;1999.90;999.90;;;;;;;;;;5074856;28;20044;-72
2023/07/15 04:20:33;;;;;;;1999.90;999.90;;;;;;;;;;5066867;28;20384;-73
2023/07/15 04:22:59;;;;;;;1999.90;999.90;;;;;;;;;;5074300;28;20047;-72
2023/07/15 04:25:26;;;;;;;1999.90;999.90;;;;;;;;;;5075292;28;20479;-73
2023/07/15 04:27:52;;;;;;;1999.90;999.90;;;;;;;;;;5071227;28;20126;-73
2023/07/15 04:30:19;;;;;;;1999.90;999.90;;;;;;;;;;5068924;28;20049;-72
2023/07/15 04:32:48;;;;;;;1999.90;999.90;;;;;;;;;;5078613;28;20123;-75
2023/07/15 04:35:14;;;;;;;1999.90;999.90;;;;;;;;;;5072891;28;20051;-73
2023/07/15 04:37:41;;;;;;;1999.90;999.90;;;;;;;;;;5069434;28;20040;-72
2023/07/15 04:40:10;;;;;;;1999.90;999.90;;;;;;;;;;5069099;28;20048;-73
2023/07/15 04:42:37;;;;;;;1999.90;999.90;;;;;;;;;;5075806;28;20040;-73
2023/07/15 04:45:05;;;;;;;1999.90;999.90;;;;;;;;;;5073130;28;20045;-72
2023/07/15 04:47:31;;;;;;;1999.90;999.90;;;;;;;;;;5071993;28;20151;-72
2023/07/15 04:49:59;;;;;;;1999.90;999.90;;;;;;;;;;5076026;28;20488;-73
2023/07/15 04:52:25;;;;;;;1999.90;999.90;;;;;;;;;;5068033;28;20052;-72
2023/07/15 04:54:52;;;;;;;1999.90;999.90;;;;;;;;;;5067930;28;20048;-73
2023/07/15 04:57:19;;;;;;;1999.90;999.90;;;;;;;;;;5067297;28;20044;-73
2023/07/15 04:59:46;;;;;;;1999.90;999.90;;;;;;;;;;5073553;28;20048;-72
2023/07/15 05:02:12;;;;;;;1999.90;999.90;;;;;;;;;;5063522;28;20045;-73
2023/07/15 05:04:39;;;;;;;1999.90;999.90;;;;;;;;;;5066897;28;20060;-72
2023/07/15 05:07:07;;;;;;;1999.90;999.90;;;;;;;;;;5064107;28;20065;-73
2023/07/15 05:09:33;;;;;;;1999.90;999.90;;;;;;;;;;5063453;28;20052;-72
2023/07/15 05:12:00;;;;;;;1999.90;999.90;;;;;;;;;;5067857;28;20053;-73
2023/07/15 05:14:27;;;;;;;1999.90;999.90;;;;;;;;;;5063739;28;20052;-73
2023/07/15 05:16:53;;;;;;;1999.90;999.90;;;;;;;;;;5060646;28;20052;-72
2023/07/15 05:19:19;;;;;;;1999.90;999.90;;;;;;;;;;5063998;28;20520;-72
2023/07/15 05:21:46;;;;;;;1999.90;999.90;;;;;;;;;;5063144;28;20044;-72
2023/07/15 05:24:13;;;;;;;1999.90;999.90;;;;;;;;;;5067794;28;20041;-72
2023/07/15 05:26:40;;;;;;;1999.90;999.90;;;;;;;;;;5064457;28;20053;-73
2023/07/15 05:29:07;;;;;;;1999.90;999.90;;;;;;;;;;5064548;28;20421;-72
2023/07/15 05:31:34;;;;;;;1999.90;999.90;;;;;;;;;;5065604;28;20049;-73
2023/07/15 05:34:00;;;;;;;1999.90;999.90;;;;;;;;;;5071267;28;20068;-73
2023/07/15 05:36:27;;;;;;;1999.90;999.90;;;;;;;;;;5075659;28;20499;-74
2023/07/15 05:38:53;;;;;;;1999.90;999.90;;;;;;;;;;5071910;28;20049;-73
2023/07/15 05:41:21;;;;;;;1999.90;999.90;;;;;;;;;;5069025;28;20056;-74
2023/07/15 05:43:47;;;;;;;1999.90;999.90;;;;;;;;;;5069231;28;20040;-73
2023/07/15 05:46:14;;;;;;;1999.90;999.90;;;;;;;;;;5070824;28;20044;-73
2023/07/15 05:48:40;;;;;;;1999.90;999.90;;;;;;;;;;5069097;28;20051;-73
2023/07/15 05:51:07;;;;;;;1999.90;999.90;;;;;;;;;;5078131;28;20080;-73
2023/07/15 05:53:34;;;;;;;1999.90;999.90;;;;;;;;;;5072101;28;20048;-73
2023/07/15 05:56:00;;;;;;;1999.90;999.90;;;;;;;;;;5076205;28;20041;-73
2023/07/15 05:58:28;;;;;;;1999.90;999.90;;;;;;;;;;5071712;28;20400;-73
2023/07/15 06:00:55;;;;;;;1999.90;999.90;;;;;;;;;;5069507;28;20076;-73
2023/07/15 06:03:22;;;;;;;1999.90;999.90;;;;;;;;;;5070579;28;20515;-73
2023/07/15 06:05:48;;;;;;;1999.90;999.90;;;;;;;;;;5079690;28;20087;-73
2023/07/15 06:08:14;;;;;;;1999.90;999.90;;;;;;;;;;5078116;28;20044;-73
2023/07/15 06:10:42;;;;;;;1999.90;999.90;;;;;;;;;;5072832;28;20041;-74
2023/07/15 06:13:09;;;;;;;1999.90;999.90;;;;;;;;;;5072605;28;20045;-72
2023/07/15 06:15:38;;;;;;;1999.90;999.90;;;;;;;;;;5065061;28;20052;-73
2023/07/15 06:18:05;;;;;;;1999.90;999.90;;;;;;;;;;5070380;28;20079;-72
2023/07/15 06:20:31;;;;;;;1999.90;999.90;;;;;;;;;;5070426;28;20411;-73
2023/07/15 06:22:59;;;;;;;1999.90;999.90;;;;;;;;;;5070447;28;20037;-74
2023/07/15 06:25:29;;;;;;;1999.90;999.90;;;;;;;;;;5063971;28;20049;-73
2023/07/15 06:27:55;;;;;;;1999.90;999.90;;;;;;;;;;5063753;28;20129;-73
2023/07/15 06:30:22;;;;;;;1999.90;999.90;;;;;;;;;;5061170;28;20063;-73
2023/07/15 06:32:50;;;;;;;1999.90;999.90;;;;;;;;;;5063788;28;20045;-73
2023/07/15 06:35:17;;;;;;;1999.90;999.90;;;;;;;;;;5065904;28;20048;-73
2023/07/15 06:37:46;;;;;;;1999.90;999.90;;;;;;;;;;5065687;28;20044;-73
2023/07/15 06:43:12;;;;;;;1999.90;999.90;;;;;;;;;;5067724;28;20067;-73
2023/07/15 06:45:39;;;;;;;1999.90;999.90;;;;;;;;;;5071985;28;20059;-73
2023/07/15 06:48:07;;;;;;;1999.90;999.90;;;;;;;;;;5071333;28;20039;-73
2023/07/15 06:50:33;;;;;;;1999.90;999.90;;;;;;;;;;5073920;28;20048;-73
2023/07/15 06:53:00;;;;;;;1999.90;999.90;;;;;;;;;;5073596;28;20044;-74
2023/07/15 06:55:26;;;;;;;1999.90;999.90;;;;;;;;;;5071784;28;20052;-73
2023/07/15 06:57:53;;;;;;;1999.90;999.90;;;;;;;;;;5073015;28;20494;-72
2023/07/15 07:00:22;;;;;;;1999.90;999.90;;;;;;;;;;5071711;28;20628;-73
2023/07/15 07:02:49;;;;;;;1999.90;999.90;;;;;;;;;;5078952;28;20044;-73
2023/07/15 07:05:17;;;;;;;1999.90;999.90;;;;;;;;;;5076715;28;20418;-73
2023/07/15 07:07:43;;;;;;;1999.90;999.90;;;;;;;;;;5075184;28;20053;-74
2023/07/15 07:10:11;;;;;;;1999.90;999.90;;;;;;;;;;5074678;28;20050;-73
2023/07/15 07:12:37;;;;;;;1999.90;999.90;;;;;;;;;;5074916;28;20049;-73
2023/07/15 07:15:05;;;;;;;1999.90;999.90;;;;;;;;;;5073947;28;20040;-73
2023/07/15 07:17:31;;;;;;;1999.90;999.90;;;;;;;;;;5067063;28;20048;-73
2023/07/15 07:19:59;;;;;;;1999.90;999.90;;;;;;;;;;5077296;28;20408;-72
2023/07/15 07:22:26;;;;;;;1999.90;999.90;;;;;;;;;;5071033;28;20059;-73
2023/07/15 07:24:53;;;;;;;1999.90;999.90;;;;;;;;;;5076193;28;20040;-72
2023/07/15 07:27:20;;;;;;;1999.90;999.90;;;;;;;;;;5074437;28;20048;-73
2023/07/15 07:29:46;;;;;;;1999.90;999.90;;;;;;;;;;5065764;28;20052;-74
2023/07/15 07:32:12;;;;;;;1999.90;999.90;;;;;;;;;;5071730;28;20044;-73
2023/07/15 07:34:39;;;;;;;1999.90;999.90;;;;;;;;;;5064221;28;20040;-73
2023/07/15 07:37:06;;;;;;;1999.90;999.90;;;;;;;;;;5071752;28;20412;-75
2023/07/15 07:39:33;;;;;;;1999.90;999.90;;;;;;;;;;5062269;28;20041;-76
2023/07/15 07:42:00;;;;;;;1999.90;999.90;;;;;;;;;;5063335;28;20045;-74
2023/07/15 07:44:26;;;;;;;1999.90;999.90;;;;;;;;;;5066733;28;20056;-74
2023/07/15 07:46:53;;;;;;;1999.90;999.90;;;;;;;;;;5064259;28;20045;-74
2023/07/15 07:49:19;;;;;;;1999.90;999.90;;;;;;;;;;5066005;28;20056;-73
2023/07/15 07:51:46;;;;;;;1999.90;999.90;;;;;;;;;;5063689;28;20048;-75
2023/07/15 07:54:12;;;;;;;1999.90;999.90;;;;;;;;;;5062693;28;20542;-76
2023/07/15 07:56:40;;;;;;;1999.90;999.90;;;;;;;;;;5065422;28;20098;-73
2023/07/15 07:59:06;;;;;;;1999.90;999.90;;;;;;;;;;5068124;28;20052;-74
2023/07/15 08:01:34;;;;;;;1999.90;999.90;;;;;;;;;;5075291;28;20056;-75
2023/07/15 08:04:01;;;;;;;1999.90;999.90;;;;;;;;;;5071133;28;20052;-73
2023/07/15 08:06:28;;;;;;;1999.90;999.90;;;;;;;;;;5072803;28;20040;-73
2023/07/15 08:08:55;;;;;;;1999.90;999.90;;;;;;;;;;5071925;28;20052;-73
2023/07/15 08:11:21;;;;;;;1999.90;999.90;;;;;;;;;;5068705;28;20487;-73
2023/07/15 08:13:50;;;;;;;1999.90;999.90;;;;;;;;;;5073720;28;20055;-73
2023/07/15 08:16:41;;;;;;;1999.90;999.90;;;;;;;;;;5068608;28;20049;-74
2023/07/15 08:19:07;;;;;;;1999.90;999.90;;;;;;;;;;5051321;28;20408;-74
2023/07/15 08:21:34;;;;;;;1999.90;999.90;;;;;;;;;;5066060;28;20056;-73
2023/07/15 08:24:01;;;;;;;1999.90;999.90;;;;;;;;;;5072928;28;20048;-73
2023/07/15 08:26:27;;;;;;;1999.90;999.90;;;;;;;;;;5074405;28;20727;-73
2023/07/15 08:28:56;;;;;;;1999.90;999.90;;;;;;;;;;5073138;28;20055;-73
2023/07/15 08:31:22;;;;;;;1999.90;999.90;;;;;;;;;;5067931;28;20713;-73
2023/07/15 08:33:49;;;;;;;1999.90;999.90;;;;;;;;;;5069174;28;20040;-73
2023/07/15 08:36:15;;;;;;;1999.90;999.90;;;;;;;;;;5072567;28;20043;-73
2023/07/15 08:38:41;;;;;;;1999.90;999.90;;;;;;;;;;5070639;28;20072;-74
2023/07/15 08:41:08;;;;;;;1999.90;999.90;;;;;;;;;;5072487;28;20044;-74
2023/07/15 08:43:35;;;;;;;1999.90;999.90;;;;;;;;;;5068211;28;20051;-75
2023/07/15 08:46:08;;;;;;;1999.90;999.90;;;;;;;;;;5063530;28;20080;-77
2023/07/15 08:48:35;;;;;;;1999.90;999.90;;;;;;;;;;5071151;28;20511;-73
2023/07/15 08:51:01;;;;;;;1999.90;999.90;;;;;;;;;;5069024;28;20044;-76
2023/07/15 08:53:29;;;;;;;1999.90;999.90;;;;;;;;;;5067959;28;20424;-73
2023/07/15 08:55:56;;;;;;;1999.90;999.90;;;;;;;;;;5063563;28;20051;-74
2023/07/15 08:58:23;;;;;;;1999.90;999.90;;;;;;;;;;5061777;28;20103;-73
2023/07/15 09:00:50;;;;;;;1999.90;999.90;;;;;;;;;;5064727;28;20064;-75
2023/07/15 09:03:19;;;;;;;1999.90;999.90;;;;;;;;;;5060601;28;20045;-74
2023/07/15 09:05:45;;;;;;;1999.90;999.90;;;;;;;;;;5064567;28;20063;-73
2023/07/15 09:08:13;;;;;;;1999.90;999.90;;;;;;;;;;5061213;28;20045;-74
2023/07/15 09:10:51;;;;;;;1999.90;999.90;;;;;;;;;;5063978;28;20049;-73
2023/07/15 09:13:22;;;;;;;1999.90;999.90;;;;;;;;;;5065532;28;20051;-73
2023/07/15 09:15:49;;;;;;;1999.90;999.90;;;;;;;;;;5071088;28;20044;-73
2023/07/15 09:18:15;;;;;;;1999.90;999.90;;;;;;;;;;5067374;28;20067;-73
2023/07/15 09:20:44;;;;;;;1999.90;999.90;;;;;;;;;;5065674;28;20048;-72
2023/07/15 09:23:10;;;;;;;1999.90;999.90;;;;;;;;;;5071493;28;20063;-74
2023/07/15 09:25:37;;;;;;;1999.90;999.90;;;;;;;;;;5065922;28;20049;-72
2023/07/15 09:28:04;;;;;;;1999.90;999.90;;;;;;;;;;5075298;28;20052;-74
2023/07/15 09:30:30;;;;;;;1999.90;999.90;;;;;;;;;;5064043;28;20076;-74
2023/07/15 09:32:57;;;;;;;1999.90;999.90;;;;;;;;;;5072642;28;20044;-74
2023/07/15 09:35:23;;;;;;;1999.90;999.90;;;;;;;;;;5077501;28;20048;-74
2023/07/15 09:37:51;;;;;;;1999.90;999.90;;;;;;;;;;5073817;28;20049;-74
2023/07/15 09:40:18;;;;;;;1999.90;999.90;;;;;;;;;;5077559;28;20097;-73
2023/07/15 09:42:51;;;;;;;1999.90;999.90;;;;;;;;;;5071435;28;20055;-73
2023/07/15 09:45:32;;;;;;;1999.90;999.90;;;;;;;;;;5073142;28;20072;-73
2023/07/15 09:47:58;;;;;;;1999.90;999.90;;;;;;;;;;5078533;28;20490;-73
2023/07/15 09:50:25;;;;;;;1999.90;999.90;;;;;;;;;;5074075;28;20076;-73
2023/07/15 09:52:55;;;;;;;1999.90;999.90;;;;;;;;;;5072744;28;20126;-73
2023/07/15 09:55:22;;;;;;;1999.90;999.90;;;;;;;;;;5073983;28;20485;-73
2023/07/15 09:57:51;;;;;;;1999.90;999.90;;;;;;;;;;5070945;28;20037;-72
2023/07/15 10:00:18;;;;;;;1999.90;999.90;;;;;;;;;;5069931;28;20048;-74
2023/07/15 10:02:49;;;;;;;1999.90;999.90;;;;;;;;;;5073613;28;20052;-72
2023/07/15 10:05:15;;;;;;;1999.90;999.90;;;;;;;;;;5084042;28;20055;-73
2023/07/15 10:07:42;;;;;;;1999.90;999.90;;;;;;;;;;5069805;28;20045;-73
2023/07/15 10:10:10;;;;;;;1999.90;999.90;;;;;;;;;;5070676;28;20049;-74
2023/07/15 10:12:36;;;;;;;1999.90;999.90;;;;;;;;;;5065210;28;20041;-72
2023/07/15 10:15:04;;;;;;;1999.90;999.90;;;;;;;;;;5066075;28;20037;-72
2023/07/15 10:17:34;;;;;;;1999.90;999.90;;;;;;;;;;5068540;28;20051;-73
2023/07/15 10:20:04;;;;;;;1999.90;999.90;;;;;;;;;;5063954;28;20415;-73
2023/07/15 10:22:34;;;;;;;1999.90;999.90;;;;;;;;;;5065882;28;20072;-73
2023/07/15 10:25:03;;;;;;;1999.90;999.90;;;;;;;;;;5073861;28;20549;-72
2023/07/15 10:27:32;;;;;;;1999.90;999.90;;;;;;;;;;5067930;28;20056;-73
2023/07/15 10:30:18;;;;;;;1999.90;999.90;;;;;;;;;;5074152;28;20412;-74
2023/07/15 10:33:12;;;;;;;1999.90;999.90;;;;;;;;;;5070333;28;20135;-72
2023/07/15 10:35:49;;;;;;;1999.90;999.90;;;;;;;;;;5028012;28;20056;-73
2023/07/15 10:38:26;;;;;;;1999.90;999.90;;;;;;;;;;5069583;28;20054;-73
2023/07/15 10:40:56;;;;;;;1999.90;999.90;;;;;;;;;;5067659;28;20044;-73
2023/07/15 10:43:25;;;;;;;1999.90;999.90;;;;;;;;;;5078261;28;20063;-75
2023/07/15 10:45:53;;;;;;;1999.90;999.90;;;;;;;;;;5077195;28;20051;-73
2023/07/15 10:48:20;;;;;;;1999.90;999.90;;;;;;;;;;5072941;28;20048;-73
2023/07/15 10:50:48;;;;;;;1999.90;999.90;;;;;;;;;;5070329;28;20056;-73
2023/07/15 10:53:22;;;;;;;1999.90;999.90;;;;;;;;;;5070894;28;20052;-73
2023/07/15 10:55:55;;;;;;;1999.90;999.90;;;;;;;;;;5078351;28;20109;-73
2023/07/15 10:58:22;;;;;;;1999.90;999.90;;;;;;;;;;5072376;28;20102;-72
2023/07/15 11:00:50;;;;;;;1999.90;999.90;;;;;;;;;;5075535;28;20060;-72
2023/07/15 11:03:18;;;;;;;1999.90;999.90;;;;;;;;;;5075991;28;20059;-72
2023/07/15 11:05:46;;;;;;;1999.90;999.90;;;;;;;;;;5066960;28;20143;-72
2023/07/15 11:08:12;;;;;;;1999.90;999.90;;;;;;;;;;5074589;28;20047;-72
2023/07/15 11:10:39;;;;;;;1999.90;999.90;;;;;;;;;;5075304;28;20051;-72
2023/07/15 11:13:13;;;;;;;1999.90;999.90;;;;;;;;;;5069486;28;20111;-73
2023/07/15 11:15:39;;;;;;;1999.90;999.90;;;;;;;;;;5068388;28;20049;-72
2023/07/15 11:18:07;;;;;;;1999.90;999.90;;;;;;;;;;5068712;28;20047;-73
2023/07/15 11:20:34;;;;;;;1999.90;999.90;;;;;;;;;;5062668;28;20056;-73
2023/07/15 11:23:00;;;;;;;1999.90;999.90;;;;;;;;;;5069705;28;20079;-72
2023/07/15 11:25:28;;;;;;;1999.90;999.90;;;;;;;;;;5065003;28;20048;-74
2023/07/15 11:27:59;;;;;;;1999.90;999.90;;;;;;;;;;5063230;28;20057;-73
2023/07/15 11:30:25;;;;;;;1999.90;999.90;;;;;;;;;;5059303;28;20049;-72
2023/07/15 11:32:54;;;;;;;1999.90;999.90;;;;;;;;;;5062852;28;20489;-73
2023/07/15 11:35:22;;;;;;;1999.90;999.90;;;;;;;;;;5063962;28;20072;-72
2023/07/15 11:37:49;;;;;;;1999.90;999.90;;;;;;;;;;5064823;28;20048;-73
2023/07/15 11:40:16;;;;;;;1999.90;999.90;;;;;;;;;;5067797;28;20045;-74
2023/07/15 11:42:42;;;;;;;1999.90;999.90;;;;;;;;;;5063556;28;20072;-72
2023/07/15 11:45:10;;;;;;;1999.90;999.90;;;;;;;;;;5070817;28;20048;-73
2023/07/15 11:47:36;;;;;;;1999.90;999.90;;;;;;;;;;5077298;28;20048;-72
2023/07/15 11:50:03;;;;;;;1999.90;999.90;;;;;;;;;;5073834;28;20063;-73
2023/07/15 11:52:39;;;;;;;1999.90;999.90;;;;;;;;;;5071318;28;20047;-73
2023/07/15 11:55:07;;;;;;;1999.90;999.90;;;;;;;;;;5074810;28;20049;-73
2023/07/15 11:57:34;;;;;;;1999.90;999.90;;;;;;;;;;5077209;28;20433;-73
2023/07/15 12:00:00;;;;;;;1999.90;999.90;;;;;;;;;;5073451;28;20476;-73
2023/07/15 12:02:27;;;;;;;1999.90;999.90;;;;;;;;;;5076713;28;20052;-73
2023/07/15 12:04:55;;;;;;;1999.90;999.90;;;;;;;;;;5073655;28;20049;-72
2023/07/15 12:07:21;;;;;;;1999.90;999.90;;;;;;;;;;5075257;28;20495;-70
2023/07/15 12:10:05;;;;;;;1999.90;999.90;;;;;;;;;;5072778;28;20412;-71
2023/07/15 12:12:32;;;;;;;1999.90;999.90;;;;;;;;;;5074165;28;20048;-70
2023/07/15 12:14:58;;;;;;;1999.90;999.90;;;;;;;;;;5066912;28;20044;-70
2023/07/15 12:17:24;;;;;;;1999.90;999.90;;;;;;;;;;5076942;28;20059;-71
2023/07/15 12:19:51;;;;;;;1999.90;999.90;;;;;;;;;;5075477;28;20068;-70
2023/07/15 12:22:18;;;;;;;1999.90;999.90;;;;;;;;;;5069333;28;20055;-71
2023/07/15 12:24:44;;;;;;;1999.90;999.90;;;;;;;;;;5071074;28;20126;-73
2023/07/15 12:27:12;;;;;;;1999.90;999.90;;;;;;;;;;5067380;28;20059;-73
2023/07/15 12:29:39;;;;;;;1999.90;999.90;;;;;;;;;;5067023;28;20044;-73
2023/07/15 12:32:06;;;;;;;1999.90;999.90;;;;;;;;;;5070363;28;20048;-73
2023/07/15 12:34:32;;;;;;;1999.90;999.90;;;;;;;;;;5066301;28;20064;-73
2023/07/15 12:36:59;;;;;;;1999.90;999.90;;;;;;;;;;5066110;28;20511;-73
2023/07/15 12:39:25;;;;;;;1999.90;999.90;;;;;;;;;;5067034;28;20412;-70
2023/07/15 12:41:51;;;;;;;1999.90;999.90;;;;;;;;;;5060201;28;20040;-71
2023/07/15 12:44:19;;;;;;;1999.90;999.90;;;;;;;;;;5060983;28;20052;-75
2023/07/15 12:46:46;;;;;;;1999.90;999.90;;;;;;;;;;5058946;28;20056;-74
2023/07/15 12:49:12;;;;;;;1999.90;999.90;;;;;;;;;;5062706;28;20045;-73
2023/07/15 12:51:38;;;;;;;1999.90;999.90;;;;;;;;;;5065905;28;20037;-70
2023/07/15 12:54:05;;;;;;;1999.90;999.90;;;;;;;;;;5067285;28;20045;-74
2023/07/15 12:56:31;;;;;;;1999.90;999.90;;;;;;;;;;5063090;28;20511;-73
2023/07/15 12:58:58;;;;;;;1999.90;999.90;;;;;;;;;;5067682;28;20484;-73
2023/07/15 13:01:26;;;;;;;1999.90;999.90;;;;;;;;;;5064118;28;20052;-72
2023/07/15 13:03:52;;;;;;;1999.90;999.90;;;;;;;;;;5070843;28;20054;-73
2023/07/15 13:06:19;;;;;;;1999.90;999.90;;;;;;;;;;5069399;28;20052;-73
2023/07/15 13:08:45;;;;;;;1999.90;999.90;;;;;;;;;;5073872;28;20049;-73
2023/07/15 13:11:12;;;;;;;1999.90;999.90;;;;;;;;;;5072264;28;20066;-70
2023/07/15 13:13:38;;;;;;;1999.90;999.90;;;;;;;;;;5079297;28;20049;-71
2023/07/15 13:16:06;;;;;;;1999.90;999.90;;;;;;;;;;5081645;28;20044;-70
2023/07/15 13:18:34;;;;;;;1999.90;999.90;;;;;;;;;;5077768;28;20075;-70
2023/07/15 13:21:00;;;;;;;1999.90;999.90;;;;;;;;;;5072116;28;20060;-73
2023/07/15 13:23:26;;;;;;;1999.90;999.90;;;;;;;;;;5077990;28;20049;-74
2023/07/15 13:25:53;;;;;;;1999.90;999.90;;;;;;;;;;5081753;28;20055;-74
2023/07/15 13:28:19;;;;;;;1999.90;999.90;;;;;;;;;;5072616;28;20068;-73
2023/07/15 13:30:46;;;;;;;1999.90;999.90;;;;;;;;;;5077430;28;20044;-73
2023/07/15 13:33:13;;;;;;;1999.90;999.90;;;;;;;;;;5069768;28;20048;-71
2023/07/15 13:35:41;;;;;;;1999.90;999.90;;;;;;;;;;5078343;28;20146;-70
2023/07/15 13:38:07;;;;;;;1999.90;999.90;;;;;;;;;;5077083;28;20044;-71
2023/07/15 13:40:33;;;;;;;1999.90;999.90;;;;;;;;;;5072569;28;20063;-72
2023/07/15 13:43:00;;;;;;;1999.90;999.90;;;;;;;;;;5074892;28;20048;-70
2023/07/15 13:45:26;;;;;;;1999.90;999.90;;;;;;;;;;5075476;28;20045;-70